Time;durP1;ratioP1;P1;durP2;ratioP2;P2;SDS_P1;SDS_P2;PMS_P1;PMS_P2;Temp;Humidity;BMP_temperature;BMP_pressure;BME280_temperature;BME280_humidity;BME280_pressure;Samples;Min_cycle;Max_cycle;Signal;HPM_P1;HPM_P2
2023/12/12 00:02:45;;;;;;;1999.90;999.90;;;;;;;13.33;68.96;100661.13;10421484;28;20050;-66
2023/12/12 00:07:47;;;;;;;1999.90;999.90;;;;;;;12.90;72.62;100667.59;10421192;28;20057;-66
2023/12/12 00:12:50;;;;;;;1999.90;999.90;;;;;;;13.19;70.62;100670.81;10419934;28;20052;-66
2023/12/12 00:17:53;;;;;;;1999.90;999.90;;;;;;;13.25;70.12;100679.25;10420748;28;20485;-66
2023/12/12 00:22:56;;;;;;;1999.90;999.90;;;;;;;12.59;72.58;100682.84;10420634;28;20045;-66
2023/12/12 00:27:58;;;;;;;1999.90;999.90;;;;;;;12.48;71.79;100684.50;10420534;28;20060;-66
2023/12/12 00:33:01;;;;;;;1999.90;999.90;;;;;;;12.68;70.85;100678.75;10420200;28;20056;-66
2023/12/12 00:38:03;;;;;;;1999.90;999.90;;;;;;;12.34;72.11;100678.41;10420180;28;20053;-66
2023/12/12 00:43:05;;;;;;;1999.90;999.90;;;;;;;12.60;71.60;100688.91;10419845;28;20048;-66
2023/12/12 00:48:08;;;;;;;1999.90;999.90;;;;;;;13.14;69.75;100686.06;10418367;28;20061;-66
2023/12/12 00:53:10;;;;;;;1999.90;999.90;;;;;;;12.87;71.85;100683.56;10419316;28;20050;-66
2023/12/12 00:58:13;;;;;;;1999.90;999.90;;;;;;;12.57;73.93;100681.25;10418045;28;20136;-66
2023/12/12 01:03:15;;;;;;;1999.90;999.90;;;;;;;12.55;73.51;100683.13;10419219;28;20124;-66
2023/12/12 01:08:18;;;;;;;1999.90;999.90;;;;;;;12.76;72.38;100676.44;10418026;28;20057;-65
2023/12/12 01:13:20;;;;;;;1999.90;999.90;;;;;;;12.30;74.38;100682.16;10418823;28;20048;-66
2023/12/12 01:18:22;;;;;;;1999.90;999.90;;;;;;;12.29;72.38;100677.00;10417417;28;20053;-66
2023/12/12 01:23:25;;;;;;;1999.90;999.90;;;;;;;12.41;73.45;100669.16;10418243;28;20404;-66
2023/12/12 01:28:27;;;;;;;1999.90;999.90;;;;;;;12.56;72.54;100669.91;10418077;28;20057;-66
2023/12/12 01:33:29;;;;;;;1999.90;999.90;;;;;;;12.47;73.48;100674.94;10417924;28;20056;-65
2023/12/12 01:38:32;;;;;;;1999.90;999.90;;;;;;;12.38;72.09;100685.09;10417646;28;20515;-66
2023/12/12 01:43:35;;;;;;;1999.90;999.90;;;;;;;12.89;69.08;100671.16;10417415;28;20132;-66
2023/12/12 01:48:38;;;;;;;1999.90;999.90;;;;;;;11.95;70.89;100668.72;10415972;28;20486;-66
2023/12/12 01:53:46;;;;;;;1999.90;999.90;;;;;;;12.38;70.21;100660.66;10415847;28;20054;-66
2023/12/12 01:58:51;;;;;;;1999.90;999.90;;;;;;;12.02;71.18;100646.38;10415644;28;20500;-66
2023/12/12 02:03:54;;;;;;;1999.90;999.90;;;;;;;12.28;72.79;100639.41;10416543;28;20067;-66
2023/12/12 02:08:56;;;;;;;1999.90;999.90;;;;;;;12.17;72.11;100639.28;10415299;28;20412;-66
2023/12/12 02:13:59;;;;;;;1999.90;999.90;;;;;;;12.22;69.68;100638.06;10415337;28;20119;-66
2023/12/12 02:19:01;;;;;;;1999.90;999.90;;;;;;;12.10;71.08;100646.72;10414930;28;20050;-66
2023/12/12 02:24:04;;;;;;;1999.90;999.90;;;;;;;11.76;74.25;100643.66;10415959;28;20488;-66
2023/12/12 02:29:06;;;;;;;1999.90;999.90;;;;;;;11.87;74.62;100651.69;10416208;28;20128;-65
2023/12/12 02:34:09;;;;;;;1999.90;999.90;;;;;;;12.24;71.90;100654.53;10398081;28;20053;-65
2023/12/12 02:39:12;;;;;;;1999.90;999.90;;;;;;;11.89;74.43;100657.66;10414563;28;20045;-65
2023/12/12 02:44:14;;;;;;;1999.90;999.90;;;;;;;11.88;74.17;100652.50;10414186;28;20056;-66
2023/12/12 02:49:17;;;;;;;1999.90;999.90;;;;;;;11.77;77.15;100654.97;10415432;28;20053;-65
2023/12/12 02:54:19;;;;;;;1999.90;999.90;;;;;;;12.25;71.87;100648.34;10415025;28;20058;-66
2023/12/12 02:59:21;;;;;;;1999.90;999.90;;;;;;;11.40;71.58;100649.47;10414962;28;20053;-66
2023/12/12 03:04:24;;;;;;;1999.90;999.90;;;;;;;11.94;75.55;100640.81;10413739;28;20056;-66
2023/12/12 03:09:26;;;;;;;1999.90;999.90;;;;;;;11.75;72.79;100647.25;10413584;28;20531;-66
2023/12/12 03:14:29;;;;;;;1999.90;999.90;;;;;;;12.11;71.30;100643.16;10415006;28;20060;-66
2023/12/12 03:19:31;;;;;;;1999.90;999.90;;;;;;;11.81;71.87;100643.38;10413543;28;20053;-66
2023/12/12 03:24:34;;;;;;;1999.90;999.90;;;;;;;11.97;71.24;100638.84;10414613;28;20081;-66
2023/12/12 03:29:36;;;;;;;1999.90;999.90;;;;;;;12.07;69.14;100628.59;10414605;28;20049;-66
2023/12/12 03:34:38;;;;;;;1999.90;999.90;;;;;;;11.70;71.20;100634.41;10420930;28;20397;-66
2023/12/12 03:39:41;;;;;;;1999.90;999.90;;;;;;;11.56;70.79;100623.13;10422439;28;20051;-65
2023/12/12 03:44:43;;;;;;;1999.90;999.90;;;;;;;11.50;71.36;100632.25;10422035;28;20075;-66
2023/12/12 03:49:46;;;;;;;1999.90;999.90;;;;;;;11.60;71.96;100620.22;10422079;28;20052;-66
2023/12/12 03:54:48;;;;;;;1999.90;999.90;;;;;;;11.54;70.62;100617.97;10422026;28;20108;-66
2023/12/12 03:59:51;;;;;;;1999.90;999.90;;;;;;;11.27;68.66;100610.94;10421615;28;20053;-66
2023/12/12 04:04:53;;;;;;;1999.90;999.90;;;;;;;11.65;69.10;100615.50;10421292;28;20057;-66
2023/12/12 04:09:56;;;;;;;1999.90;999.90;;;;;;;12.10;69.03;100612.59;10421203;28;20133;-66
2023/12/12 04:14:59;;;;;;;1999.90;999.90;;;;;;;11.97;70.02;100602.09;10421336;28;20103;-66
2023/12/12 04:20:01;;;;;;;1999.90;999.90;;;;;;;11.94;69.10;100598.84;10420775;28;20128;-66
2023/12/12 04:25:05;;;;;;;1999.90;999.90;;;;;;;12.03;70.42;100596.44;10420546;28;20551;-66
2023/12/12 04:30:08;;;;;;;1999.90;999.90;;;;;;;12.19;69.94;100588.38;10420451;28;20049;-66
2023/12/12 04:35:11;;;;;;;1999.90;999.90;;;;;;;12.62;69.33;100595.09;10419062;28;20045;-66
2023/12/12 04:40:13;;;;;;;1999.90;999.90;;;;;;;12.36;69.99;100592.50;10420195;28;20183;-66
2023/12/12 04:45:16;;;;;;;1999.90;999.90;;;;;;;12.58;70.29;100598.91;10418439;28;20493;-66
2023/12/12 04:50:18;;;;;;;1999.90;999.90;;;;;;;12.58;70.61;100589.22;10419480;28;20511;-66
2023/12/12 04:55:21;;;;;;;1999.90;999.90;;;;;;;12.67;70.26;100579.88;10419324;28;20060;-66
2023/12/12 05:00:23;;;;;;;1999.90;999.90;;;;;;;12.62;71.01;100571.47;10418029;28;20050;-66
2023/12/12 05:05:25;;;;;;;1999.90;999.90;;;;;;;12.55;68.94;100565.78;10419054;28;20404;-66
2023/12/12 05:10:28;;;;;;;1999.90;999.90;;;;;;;12.37;70.80;100564.44;10418767;28;20133;-66
2023/12/12 05:15:30;;;;;;;1999.90;999.90;;;;;;;12.05;70.90;100555.22;10418806;28;20085;-65
2023/12/12 05:20:33;;;;;;;1999.90;999.90;;;;;;;11.84;71.27;100541.69;10417184;28;20377;-66
2023/12/12 05:25:36;;;;;;;1999.90;999.90;;;;;;;11.89;71.14;100538.78;10417006;28;20123;-66
2023/12/12 05:30:38;;;;;;;1999.90;999.90;;;;;;;11.29;71.77;100540.91;10417976;28;20421;-66
2023/12/12 05:35:42;;;;;;;1999.90;999.90;;;;;;;11.47;70.94;100530.19;10417822;28;20522;-66
2023/12/12 05:40:44;;;;;;;1999.90;999.90;;;;;;;11.35;70.90;100518.72;10417791;28;20125;-66
2023/12/12 05:45:47;;;;;;;1999.90;999.90;;;;;;;11.43;71.40;100519.06;10417498;28;20046;-66
2023/12/12 05:50:49;;;;;;;1999.90;999.90;;;;;;;11.70;72.85;100531.28;10417344;28;20049;-65
2023/12/12 05:55:52;;;;;;;1999.90;999.90;;;;;;;11.67;70.75;100531.50;10416564;28;20057;-66
2023/12/12 06:00:54;;;;;;;1999.90;999.90;;;;;;;11.31;74.26;100538.19;10416956;28;20071;-66
2023/12/12 06:05:57;;;;;;;1999.90;999.90;;;;;;;11.93;72.83;100536.81;10431432;23;20050;31
2023/12/12 06:10:59;;;;;;;1999.90;999.90;;;;;;;12.20;73.24;100534.94;10332331;28;20136;-64
2023/12/12 06:16:02;;;;;;;1999.90;999.90;;;;;;;11.93;73.16;100537.66;10335202;28;20050;-64
2023/12/12 06:21:04;;;;;;;1999.90;999.90;;;;;;;12.66;73.98;100535.31;10334670;28;20050;-64
2023/12/12 06:26:06;;;;;;;1999.90;999.90;;;;;;;12.94;72.30;100535.03;10334899;28;20108;-64
2023/12/12 06:31:09;;;;;;;1999.90;999.90;;;;;;;12.78;71.75;100534.47;10334699;28;20081;-64
2023/12/12 06:36:11;;;;;;;1999.90;999.90;;;;;;;12.64;74.04;100522.28;10334330;28;20050;-64
2023/12/12 06:41:14;;;;;;;1999.90;999.90;;;;;;;12.29;77.26;100515.09;10334382;28;20046;-64
2023/12/12 06:46:19;;;;;;;1999.90;999.90;;;;;;;12.72;75.09;100512.09;10334001;28;20461;-64
2023/12/12 06:51:22;;;;;;;1999.90;999.90;;;;;;;12.58;77.61;100494.69;10332883;28;20046;-64
2023/12/12 06:56:26;;;;;;;1999.90;999.90;;;;;;;12.16;77.58;100488.03;10333941;28;20046;-64
2023/12/12 07:01:28;;;;;;;1999.90;999.90;;;;;;;13.20;72.97;100495.53;10334167;28;20084;-65
2023/12/12 07:06:31;;;;;;;1999.90;999.90;;;;;;;12.90;72.86;100503.84;10335253;28;20057;-65
2023/12/12 07:11:33;;;;;;;1999.90;999.90;;;;;;;13.01;72.26;100493.38;10341920;28;20042;-66
2023/12/12 07:16:35;;;;;;;1999.90;999.90;;;;;;;12.54;75.29;100489.75;10341976;28;20133;-65
2023/12/12 07:21:41;;;;;;;1999.90;999.90;;;;;;;12.52;76.42;100483.78;10341666;28;20050;-64
2023/12/12 07:26:45;;;;;;;1999.90;999.90;;;;;;;13.94;70.91;100477.72;10340274;28;20061;-64
2023/12/12 07:31:47;;;;;;;1999.90;999.90;;;;;;;13.29;74.51;100478.25;10340018;28;20050;-64
2023/12/12 07:36:50;;;;;;;1999.90;999.90;;;;;;;13.38;74.39;100483.69;10339939;28;20123;-65
2023/12/12 07:41:52;;;;;;;1999.90;999.90;;;;;;;13.27;72.55;100473.09;10340906;28;20522;-65
2023/12/12 07:46:55;;;;;;;1999.90;999.90;;;;;;;12.80;76.01;100472.97;10340686;28;20054;-65
2023/12/12 07:51:57;;;;;;;1999.90;999.90;;;;;;;12.90;75.61;100459.19;10340629;28;20050;-65
2023/12/12 07:57:00;;;;;;;1999.90;999.90;;;;;;;12.63;75.65;100442.66;10340337;28;20058;-65
2023/12/12 08:02:02;;;;;;;1999.90;999.90;;;;;;;13.14;75.62;100440.78;10340355;28;20404;-65
2023/12/12 08:07:05;;;;;;;1999.90;999.90;;;;;;;13.11;75.87;100441.00;10338555;28;20501;-65
2023/12/12 08:12:08;;;;;;;1999.90;999.90;;;;;;;12.79;76.87;100437.16;10339671;28;20054;-65
2023/12/12 08:17:10;;;;;;;1999.90;999.90;;;;;;;12.60;79.95;100431.53;10339467;28;20142;-64
2023/12/12 08:22:13;;;;;;;1999.90;999.90;;;;;;;13.07;77.91;100414.09;10339397;28;20050;-64
2023/12/12 08:27:15;;;;;;;1999.90;999.90;;;;;;;12.48;80.62;100422.75;10339164;28;20440;-64
2023/12/12 08:32:17;;;;;;;1999.90;999.90;;;;;;;13.31;76.09;100413.22;10339166;28;20054;-65
2023/12/12 08:37:20;;;;;;;1999.90;999.90;;;;;;;13.35;77.11;100405.03;10337625;28;20050;-65
2023/12/12 08:42:22;;;;;;;1999.90;999.90;;;;;;;13.23;76.77;100408.56;10338571;28;20054;-65
2023/12/12 08:47:25;;;;;;;1999.90;999.90;;;;;;;12.47;80.75;100420.25;10338443;28;20116;-65
2023/12/12 08:52:34;;;;;;;1999.90;999.90;;;;;;;12.92;78.57;100399.47;10338069;28;20540;-65
2023/12/12 08:57:40;;;;;;;1999.90;999.90;;;;;;;13.14;78.97;100394.28;10338145;28;20082;-65
2023/12/12 09:02:42;;;;;;;1999.90;999.90;;;;;;;12.82;77.82;100387.00;10338078;28;20125;-65
2023/12/12 09:07:44;;;;;;;1999.90;999.90;;;;;;;13.38;77.78;100389.03;10336266;28;20159;-65
2023/12/12 09:12:47;;;;;;;1999.90;999.90;;;;;;;13.65;75.14;100385.25;10337351;28;20398;-65
2023/12/12 09:17:49;;;;;;;1999.90;999.90;;;;;;;12.93;75.91;100374.88;10337339;28;20125;-65
2023/12/12 09:23:11;;;;;;;1999.90;999.90;;;;;;;14.41;73.02;100367.03;10336914;28;20441;-65
2023/12/12 09:28:14;;;;;;;1999.90;999.90;;;;;;;14.22;72.13;100362.41;10335550;28;20050;-65
2023/12/12 09:33:17;;;;;;;1999.90;999.90;;;;;;;14.44;74.94;100356.25;10336140;28;20078;-65
2023/12/12 09:38:19;;;;;;;1999.90;999.90;;;;;;;14.54;72.71;100343.16;10336722;28;20046;-65
2023/12/12 09:43:26;;;;;;;1999.90;999.90;;;;;;;14.19;73.10;100336.31;10335055;28;20047;-65
2023/12/12 09:48:28;;;;;;;1999.90;999.90;;;;;;;13.70;74.19;100329.63;10336278;28;20077;-65
2023/12/12 09:53:35;;;;;;;1999.90;999.90;;;;;;;14.25;72.70;100314.72;10335876;28;20165;-65
2023/12/12 09:58:37;;;;;;;1999.90;999.90;;;;;;;14.99;70.85;100303.44;10334497;28;20060;-65
2023/12/12 10:03:40;;;;;;;1999.90;999.90;;;;;;;14.65;70.03;100294.88;10335696;28;20130;-65
2023/12/12 10:08:43;;;;;;;1999.90;999.90;;;;;;;14.12;74.39;100292.97;10333941;28;20062;-65
2023/12/12 10:13:56;;;;;;;1999.90;999.90;;;;;;;15.20;70.69;100287.63;10335169;28;20054;-65
2023/12/12 10:19:02;;;;;;;1999.90;999.90;;;;;;;14.58;73.06;100270.81;10335059;28;20133;-65
2023/12/12 10:24:05;;;;;;;1999.90;999.90;;;;;;;15.57;70.17;100260.72;10334967;28;20051;-65
2023/12/12 10:29:08;;;;;;;1999.90;999.90;;;;;;;14.87;71.78;100254.41;10333485;28;20061;-65
2023/12/12 10:34:10;;;;;;;1999.90;999.90;;;;;;;14.86;71.34;100243.03;10334358;28;20497;-66
2023/12/12 10:39:14;;;;;;;1999.90;999.90;;;;;;;15.52;71.61;100238.34;10333213;28;20057;-66
2023/12/12 10:44:20;;;;;;;1999.90;999.90;;;;;;;15.36;70.45;100220.38;10332932;28;20470;-65
2023/12/12 10:49:26;;;;;;;1999.90;999.90;;;;;;;14.54;71.61;100216.72;10334271;28;20065;-65
2023/12/12 10:54:33;;;;;;;1999.90;999.90;;;;;;;15.65;69.50;100215.22;10332741;28;20077;-65
2023/12/12 10:59:37;;;;;;;1999.90;999.90;;;;;;;16.49;66.93;100205.97;10333853;28;20468;-65
2023/12/12 11:05:00;;;;;;;1999.90;999.90;;;;;;;16.57;66.69;100195.53;10332605;28;20050;-65
2023/12/12 11:10:22;;;;;;;1999.90;999.90;;;;;;;16.64;66.37;100182.59;10333446;28;20054;-65
2023/12/12 11:15:26;;;;;;;1999.90;999.90;;;;;;;15.97;68.41;100174.59;10332356;28;20057;-65
2023/12/12 11:20:40;;;;;;;1999.90;999.90;;;;;;;16.09;66.75;100162.09;10333567;28;20078;-65
2023/12/12 11:25:43;;;;;;;1999.90;999.90;;;;;;;16.12;68.22;100157.34;10333346;28;20081;-65
2023/12/12 11:30:46;;;;;;;1999.90;999.90;;;;;;;16.03;68.70;100152.91;10332149;28;20128;-65
2023/12/12 11:35:48;;;;;;;1999.90;999.90;;;;;;;17.24;65.29;100138.13;10333129;28;20050;-66
2023/12/12 11:41:17;;;;;;;1999.90;999.90;;;;;;;17.21;67.99;100127.03;10333003;28;20050;-66
2023/12/12 11:46:21;;;;;;;1999.90;999.90;;;;;;;16.40;65.54;100112.53;10333124;28;20074;-66
2023/12/12 11:51:35;;;;;;;1999.90;999.90;;;;;;;17.67;62.54;100104.03;10331581;28;20402;-66
2023/12/12 11:56:38;;;;;;;1999.90;999.90;;;;;;;17.04;64.06;100110.94;10340460;28;20054;-65
2023/12/12 12:01:40;;;;;;;1999.90;999.90;;;;;;;17.64;64.18;100080.50;10340237;28;20489;-65
2023/12/12 12:06:43;;;;;;;1999.90;999.90;;;;;;;17.35;65.58;100073.63;10340002;28;20089;-65
2023/12/12 12:11:52;;;;;;;1999.90;999.90;;;;;;;17.62;63.07;100062.13;10339787;28;20057;-65
2023/12/12 12:16:58;;;;;;;1999.90;999.90;;;;;;;17.36;65.06;100062.03;10338745;28;20065;-65
2023/12/12 12:22:11;;;;;;;1999.90;999.90;;;;;;;17.73;63.79;100053.13;10339500;28;20121;-65
2023/12/12 12:27:14;;;;;;;1999.90;999.90;;;;;;;17.51;63.44;100046.47;10307414;28;20047;-65
2023/12/12 12:32:17;;;;;;;1999.90;999.90;;;;;;;17.03;64.17;100032.63;10319555;28;20137;-65
2023/12/12 12:37:30;;;;;;;1999.90;999.90;;;;;;;17.70;63.58;100037.56;10337052;28;20054;-65
2023/12/12 12:42:37;;;;;;;1999.90;999.90;;;;;;;17.50;63.35;100018.38;10338024;28;20481;-65
2023/12/12 12:47:39;;;;;;;1999.90;999.90;;;;;;;17.59;63.43;100016.63;10338864;28;20057;-65
2023/12/12 12:52:42;;;;;;;1999.90;999.90;;;;;;;16.98;65.14;100000.50;10338205;28;20054;-65
2023/12/12 12:57:44;;;;;;;1999.90;999.90;;;;;;;17.03;64.13;100002.69;10338098;28;20050;-65
2023/12/12 13:02:47;;;;;;;1999.90;999.90;;;;;;;16.51;65.30;99995.31;10337755;28;20601;-65
2023/12/12 13:07:49;;;;;;;1999.90;999.90;;;;;;;16.22;66.82;99982.19;10335890;28;20070;-65
2023/12/12 13:12:52;;;;;;;1999.90;999.90;;;;;;;16.41;68.30;99974.22;10335630;28;20056;-65
2023/12/12 13:17:54;;;;;;;1999.90;999.90;;;;;;;15.39;71.45;99985.38;10335352;28;20062;-65
2023/12/12 13:22:57;;;;;;;1999.90;999.90;;;;;;;15.47;73.30;99972.31;10335593;28;20050;-65
2023/12/12 13:27:59;;;;;;;1999.90;999.90;;;;;;;15.73;72.49;99967.28;10335152;28;20086;-65
2023/12/12 13:33:04;;;;;;;1999.90;999.90;;;;;;;15.91;72.24;99950.75;10333509;28;20054;-65
2023/12/12 13:38:06;;;;;;;1999.90;999.90;;;;;;;16.05;72.49;99938.91;10334796;28;20112;-65
2023/12/12 13:43:10;;;;;;;1999.90;999.90;;;;;;;16.15;71.79;99924.69;10333582;28;20145;-65
2023/12/12 13:48:13;;;;;;;1999.90;999.90;;;;;;;15.73;73.33;99927.69;10334523;28;20054;-65
2023/12/12 13:53:16;;;;;;;1999.90;999.90;;;;;;;16.46;70.72;99915.66;10334168;28;20047;-66
2023/12/12 13:58:20;;;;;;;1999.90;999.90;;;;;;;15.58;74.46;99924.69;10333998;28;20053;-66
2023/12/12 14:03:22;;;;;;;1999.90;999.90;;;;;;;15.21;75.80;99916.66;10333933;28;20050;-65
2023/12/12 14:08:25;;;;;;;1999.90;999.90;;;;;;;16.48;70.69;99905.75;10296178;28;1103842;-65
2023/12/12 14:13:27;;;;;;;1999.90;999.90;;;;;;;16.11;73.10;99911.91;10335276;28;20050;-65
2023/12/12 14:18:30;;;;;;;1999.90;999.90;;;;;;;16.22;71.69;99909.06;10334785;28;20197;-66
2023/12/12 14:23:33;;;;;;;1999.90;999.90;;;;;;;15.71;76.25;99900.63;10335143;28;20070;-65
2023/12/12 14:28:35;;;;;;;1999.90;999.90;;;;;;;14.68;79.98;99909.97;10334778;28;20081;-65
2023/12/12 14:33:37;;;;;;;1999.90;999.90;;;;;;;16.12;73.41;99882.72;10334458;28;20050;-65
2023/12/12 14:38:43;;;;;;;1999.90;999.90;;;;;;;15.71;76.89;99884.78;10334309;28;20050;-65
2023/12/12 14:43:46;;;;;;;1999.90;999.90;;;;;;;15.53;78.52;99874.16;10333031;28;20109;-65
2023/12/12 14:48:49;;;;;;;1999.90;999.90;;;;;;;15.08;80.11;99874.78;10334285;28;20101;-65
2023/12/12 14:53:51;;;;;;;1999.90;999.90;;;;;;;15.54;79.65;99859.97;10333816;28;20046;-66
2023/12/12 14:58:56;;;;;;;1999.90;999.90;;;;;;;15.60;78.46;99848.88;10333774;28;20059;-65
2023/12/12 15:03:58;;;;;;;1999.90;999.90;;;;;;;15.44;77.57;99853.06;10334018;28;20046;-65
2023/12/12 15:09:03;;;;;;;1999.90;999.90;;;;;;;15.88;74.81;99840.19;10333186;28;20066;-65
2023/12/12 15:14:08;;;;;;;1999.90;999.90;;;;;;;16.13;76.89;99839.50;10332516;28;20046;-65
2023/12/12 15:19:10;;;;;;;1999.90;999.90;;;;;;;15.88;76.44;99832.25;10332421;28;20058;-65
2023/12/12 15:24:13;;;;;;;1999.90;999.90;;;;;;;15.68;78.22;99821.75;10333344;28;20133;-65
2023/12/12 15:29:15;;;;;;;1999.90;999.90;;;;;;;15.31;80.09;99830.47;10337679;28;20485;-65
2023/12/12 15:34:18;;;;;;;1999.90;999.90;;;;;;;15.98;75.67;99823.31;10341259;28;20129;-65
2023/12/12 15:39:20;;;;;;;1999.90;999.90;;;;;;;15.19;80.14;99800.78;10341286;28;20057;-64
2023/12/12 15:44:25;;;;;;;1999.90;999.90;;;;;;;15.69;75.81;99797.03;10341018;28;20043;-65
2023/12/12 15:49:30;;;;;;;1999.90;999.90;;;;;;;15.46;79.27;99801.00;10340873;28;20148;-65
2023/12/12 15:54:37;;;;;;;1999.90;999.90;;;;;;;16.38;75.38;99791.41;10340487;28;20063;-65
2023/12/12 15:59:40;;;;;;;1999.90;999.90;;;;;;;16.04;74.54;99776.16;10340551;28;20054;-65
2023/12/12 16:04:43;;;;;;;1999.90;999.90;;;;;;;15.03;79.09;99761.84;10340234;28;20046;-65
2023/12/12 16:09:45;;;;;;;1999.90;999.90;;;;;;;16.39;73.05;99771.91;10339738;28;20058;-64
2023/12/12 16:14:47;;;;;;;1999.90;999.90;;;;;;;14.87;83.49;99761.59;10339873;28;20375;-64
2023/12/12 16:19:50;;;;;;;1999.90;999.90;;;;;;;15.76;78.28;99758.53;10339652;28;20154;-64
2023/12/12 16:24:52;;;;;;;1999.90;999.90;;;;;;;15.95;75.09;99748.84;10339560;28;20386;-64
2023/12/12 16:29:54;;;;;;;1999.90;999.90;;;;;;;15.19;82.15;99737.50;10338034;28;20077;-64
2023/12/12 16:34:57;;;;;;;1999.90;999.90;;;;;;;16.38;74.00;99723.53;10339159;28;20134;-64
2023/12/12 16:40:00;;;;;;;1999.90;999.90;;;;;;;14.97;79.73;99720.22;10337485;28;20475;-64
2023/12/12 16:45:02;;;;;;;1999.90;999.90;;;;;;;15.31;79.32;99734.69;10337530;28;20074;-64
2023/12/12 16:50:05;;;;;;;1999.90;999.90;;;;;;;15.81;76.31;99713.25;10338478;28;20172;-64
2023/12/12 16:55:08;;;;;;;1999.90;999.90;;;;;;;15.33;78.42;99714.28;10338125;28;20042;-64
2023/12/12 17:00:12;;;;;;;1999.90;999.90;;;;;;;16.15;73.95;99709.94;10337009;28;20065;-64
2023/12/12 17:05:14;;;;;;;1999.90;999.90;;;;;;;15.64;76.40;99706.94;10336619;28;20046;-64
2023/12/12 17:10:18;;;;;;;1999.90;999.90;;;;;;;15.29;76.98;99702.38;10337593;28;20059;-64
2023/12/12 17:15:21;;;;;;;1999.90;999.90;;;;;;;15.57;77.24;99703.22;10337673;28;20551;-64
2023/12/12 17:20:23;;;;;;;1999.90;999.90;;;;;;;15.48;77.40;99709.38;10337244;28;20051;-64
2023/12/12 17:25:25;;;;;;;1999.90;999.90;;;;;;;15.36;79.83;99695.53;10337027;28;20042;-64
2023/12/12 17:30:28;;;;;;;1999.90;999.90;;;;;;;15.83;77.88;99697.25;10336853;28;20046;-64
2023/12/12 17:35:30;;;;;;;1999.90;999.90;;;;;;;15.26;81.52;99681.56;10336581;28;20078;-64
2023/12/12 17:40:33;;;;;;;1999.90;999.90;;;;;;;15.70;79.78;99671.19;10335367;28;20080;-64
2023/12/12 17:45:35;;;;;;;1999.90;999.90;;;;;;;15.09;80.79;99664.72;10336285;28;20050;-64
2023/12/12 17:50:37;;;;;;;1999.90;999.90;;;;;;;15.08;82.04;99670.94;10335653;28;20054;-64
2023/12/12 17:55:41;;;;;;;1999.90;999.90;;;;;;;14.89;82.35;99663.94;10334934;28;20048;-64
2023/12/12 18:00:43;;;;;;;1999.90;999.90;;;;;;;15.13;80.31;99663.44;10335646;28;20051;-64
2023/12/12 18:05:48;;;;;;;1999.90;999.90;;;;;;;15.67;78.11;99660.94;10335466;28;20558;-64
2023/12/12 18:10:50;;;;;;;1999.90;999.90;;;;;;;15.73;75.07;99653.25;10334134;28;20062;-64
2023/12/12 18:15:53;;;;;;;1999.90;999.90;;;;;;;16.26;71.39;99651.63;10335202;28;20046;-65
2023/12/12 18:25:58;;;;;;;1999.90;999.90;;;;;;;15.12;73.33;99636.25;10293301;28;20054;-64
2023/12/12 18:31:00;;;;;;;1999.90;999.90;;;;;;;15.11;72.81;99645.13;10294496;28;20050;-64
2023/12/12 18:36:03;;;;;;;1999.90;999.90;;;;;;;15.58;69.80;99644.19;10294459;28;20053;-64
2023/12/12 18:41:06;;;;;;;1999.90;999.90;;;;;;;15.41;69.44;99637.91;10294164;28;20409;-64
2023/12/12 18:46:09;;;;;;;1999.90;999.90;;;;;;;14.96;71.45;99638.66;10294008;28;20142;-64
2023/12/12 18:51:11;;;;;;;1999.90;999.90;;;;;;;15.30;69.41;99630.19;10308712;28;20487;-64
2023/12/12 18:56:15;;;;;;;1999.90;999.90;;;;;;;15.22;71.20;99625.66;10293693;28;20585;-64
2023/12/12 19:01:19;;;;;;;1999.90;999.90;;;;;;;15.13;69.82;99623.88;10293135;28;20050;-65
2023/12/12 19:06:21;;;;;;;1999.90;999.90;;;;;;;14.87;71.90;99621.94;10293447;28;20057;-65
2023/12/12 19:11:23;;;;;;;1999.90;999.90;;;;;;;14.01;73.94;99611.41;10308384;28;20063;-64
2023/12/12 19:16:26;;;;;;;1999.90;999.90;;;;;;;14.72;70.17;99605.75;10293446;28;20088;-64
2023/12/12 19:21:29;;;;;;;1999.90;999.90;;;;;;;15.14;70.00;99607.09;10292995;28;20526;-64
2023/12/12 19:26:31;;;;;;;1999.90;999.90;;;;;;;14.78;69.55;99607.81;10293159;28;20457;-64
2023/12/12 19:31:34;;;;;;;1999.90;999.90;;;;;;;14.41;72.10;99600.69;10293190;28;20051;-64
2023/12/12 19:36:46;;;;;;;1999.90;999.90;;;;;;;14.83;69.31;99595.03;10292917;28;20066;-64
2023/12/12 19:41:48;;;;;;;1999.90;999.90;;;;;;;14.43;71.05;99592.66;10292969;28;20043;-64
2023/12/12 19:46:51;;;;;;;1999.90;999.90;;;;;;;14.65;70.20;99594.13;10293001;28;20134;-64
2023/12/12 19:51:53;;;;;;;1999.90;999.90;;;;;;;14.90;69.54;99578.66;10292743;28;20454;-64
2023/12/12 19:56:56;;;;;;;1999.90;999.90;;;;;;;13.75;71.68;99583.00;10292548;28;20475;-64
2023/12/12 20:01:58;;;;;;;1999.90;999.90;;;;;;;14.05;73.13;99582.00;10292642;28;20088;-64
2023/12/12 20:07:00;;;;;;;1999.90;999.90;;;;;;;13.80;73.66;99591.34;10292539;28;20055;-64
2023/12/12 20:12:03;;;;;;;1999.90;999.90;;;;;;;13.33;75.83;99586.72;10292266;28;20398;-64
2023/12/12 20:17:05;;;;;;;1999.90;999.90;;;;;;;14.12;74.79;99593.66;10298921;28;20081;-64
2023/12/12 20:22:09;;;;;;;1999.90;999.90;;;;;;;14.29;73.86;99578.94;10299091;28;20426;-64
2023/12/12 20:27:11;;;;;;;1999.90;999.90;;;;;;;14.06;76.37;99591.59;10299180;28;20442;-64
2023/12/12 20:32:14;;;;;;;1999.90;999.90;;;;;;;14.08;76.81;99575.66;10298931;28;20126;-64
2023/12/12 20:37:16;;;;;;;1999.90;999.90;;;;;;;14.65;74.03;99583.59;10298921;28;20057;-64
2023/12/12 20:42:19;;;;;;;1999.90;999.90;;;;;;;14.57;76.32;99594.81;10298668;28;20051;-64
2023/12/12 20:47:21;;;;;;;1999.90;999.90;;;;;;;14.66;75.69;99598.44;10298303;28;20126;-64
2023/12/12 20:52:24;;;;;;;1999.90;999.90;;;;;;;14.35;78.26;99611.78;10298018;28;20482;-64
2023/12/12 20:57:27;;;;;;;1999.90;999.90;;;;;;;14.47;78.17;99615.94;10298070;28;20058;-64
2023/12/12 21:02:29;;;;;;;1999.90;999.90;;;;;;;13.87;81.92;99620.53;10297921;28;20122;-64
2023/12/12 21:07:32;;;;;;;1999.90;999.90;;;;;;;14.22;82.16;99614.72;10297554;28;20431;-64
2023/12/12 21:12:35;;;;;;;1999.90;999.90;;;;;;;14.93;76.56;99609.97;10312416;28;20050;-64
2023/12/12 21:17:38;;;;;;;1999.90;999.90;;;;;;;14.76;76.17;99604.50;10297275;28;20063;-64
2023/12/12 21:22:41;;;;;;;1999.90;999.90;;;;;;;15.19;75.70;99599.59;10311688;28;20055;-64
2023/12/12 21:27:44;;;;;;;1999.90;999.90;;;;;;;15.77;71.74;99593.97;10295909;28;20471;-64
2023/12/12 21:32:46;;;;;;;1999.90;999.90;;;;;;;15.72;71.06;99590.09;10296509;28;20049;-64
2023/12/12 21:37:48;;;;;;;1999.90;999.90;;;;;;;15.20;71.98;99604.72;10296639;28;20130;-64
2023/12/12 21:42:51;;;;;;;1999.90;999.90;;;;;;;15.76;71.65;99597.56;10296279;28;20074;-64
2023/12/12 21:47:53;;;;;;;1999.90;999.90;;;;;;;14.86;73.14;99589.47;10296258;28;20134;-64
2023/12/12 21:52:56;;;;;;;1999.90;999.90;;;;;;;15.79;71.68;99578.81;10295746;28;20086;-64
2023/12/12 21:57:59;;;;;;;1999.90;999.90;;;;;;;15.40;72.93;99567.69;10310450;28;20512;-64
2023/12/12 22:03:02;;;;;;;1999.90;999.90;;;;;;;16.06;70.26;99565.66;10310490;28;20113;-64
2023/12/12 22:08:04;;;;;;;1999.90;999.90;;;;;;;14.97;73.94;99570.00;10295322;28;20478;-64